Dorr, Michigan
Current Conditions -  °F | °C
As of 5:53 AM on Friday 31 Oct 2014 (Local Time) from KGRR Reporting Station
Light Rain Light Rain  
Wind Chill: 35°   Ceiling: 2700
Heat Index: 42°   Visibility: 7mi
Dew Point: 41°   Wind: 14mph
Humidity: 96%   Direction: 320°NW
Pressure: 29.93"   Gusts: NA
Location:  42.73°N, 85.72°W
Report Text: KGRR 310953Z 32012KT 7SM -RA FEW015 SCT020 OVC027 06/05 A2993 RMK AO2 CIG 010 RWY 8R SLP140 P0003 T00560050
Loading
Personal Weather Stations






























Interactive Weather Map
Tropical Storm Tracking
New forecast layout! Learn more

10-Day Weather Forecast

Advertisements
Track Severe Weather on mobile